Time;durP1;ratioP1;P1;durP2;ratioP2;P2;SDS_P1;SDS_P2;PMS_P1;PMS_P2;Temp;Humidity;BMP_temperature;BMP_pressure;BME280_temperature;BME280_humidity;BME280_pressure;Samples;Min_cycle;Max_cycle;Signal;HPM_P1;HPM_P2
2022/02/01 00:01:02;;;;;;;;;;;;;;;24.09;21.17;100266.31;4985136;28;865;-79
2022/02/01 00:03:30;;;;;;;;;;;;;;;23.26;22.29;100270.81;4951914;28;1988;-78
2022/02/01 00:06:06;;;;;;;;;;;;;;;23.49;22.00;100271.16;4984683;28;1313;-76
2022/02/01 00:08:39;;;;;;;;;;;;;;;23.53;21.94;100277.06;4985224;28;793;-77
2022/02/01 00:11:16;;;;;;;;;;;;;;;23.44;22.07;100282.03;4967926;28;832;-80
2022/02/01 00:13:53;;;;;;;;;;;;;;;24.11;21.00;100273.34;4984868;28;1318;-76
2022/02/01 00:16:45;;;;;;;;;;;;;;;23.03;22.44;100281.31;4984778;28;1090;-77
2022/02/01 00:33:22;;;;;;;;;;;;;;;23.36;21.99;100299.75;4967417;28;1038;-77
2022/02/01 00:35:55;;;;;;;;;;;;;;;23.36;22.39;100298.91;5057592;28;1505;-76
2022/02/01 00:38:25;;;;;;;;;;;;;;;23.25;22.42;100305.97;5073649;28;836;-78
2022/02/01 00:40:55;;;;;;;;;;;;;;;22.66;23.05;100300.34;5073606;28;975;-77
2022/02/01 00:43:22;;;;;;;;;;;;;;;23.42;22.73;100306.31;5055773;28;1977;-78
2022/02/01 00:45:50;;;;;;;;;;;;;;;23.81;22.26;100307.19;5073103;28;1305;-77
2022/02/01 00:48:16;;;;;;;;;;;;;;;23.71;22.21;100306.81;5055829;28;1014;-79
2022/02/01 00:50:42;;;;;;;;;;;;;;;22.54;23.38;100313.97;5073509;28;923;-77
2022/02/01 00:53:09;;;;;;;;;;;;;;;22.03;24.28;100314.53;5073287;28;1093;-78
2022/02/01 00:55:35;;;;;;;;;;;;;;;22.72;23.57;100323.53;5055135;28;1341;-77
2022/02/01 00:58:01;;;;;;;;;;;;;;;23.08;22.88;100331.31;5073202;28;986;-76
2022/02/01 01:00:28;;;;;;;;;;;;;;;23.84;22.44;100334.47;5073385;28;708;-77
2022/02/01 01:02:55;;;;;;;;;;;;;;;24.02;21.97;100339.25;5073234;28;777;-77
2022/02/01 01:05:21;;;;;;;;;;;;;;;23.76;22.05;100334.72;5055284;28;1991;-77
2022/02/01 01:07:48;;;;;;;;;;;;;;;23.32;22.57;100345.56;5073826;28;1013;-76
2022/02/01 01:10:14;;;;;;;;;;;;;;;22.33;23.85;100336.28;5073153;28;970;-76
2022/02/01 01:12:50;;;;;;;;;;;;;;;22.61;23.76;100335.22;5073315;28;739;-76
2022/02/01 01:15:21;;;;;;;;;;;;;;;22.92;23.24;100339.25;5072901;28;1313;-77
2022/02/01 01:45:13;;;;;;;;;;;;;;;23.36;23.33;100296.13;4970605;28;1919;-77
2022/02/01 01:53:12;;;;;;;;;;;;;;;23.81;22.63;100301.66;4953498;28;1043;-74
2022/02/01 01:55:40;;;;;;;;;;;;;;;23.54;22.77;100296.28;4953026;28;1387;-80
2022/02/01 01:58:07;;;;;;;;;;;;;;;22.94;23.72;100301.97;4953531;28;1031;-75
2022/02/01 02:00:48;;;;;;;;;;;;;;;24.16;22.21;100292.03;4954235;28;999;-79
2022/02/01 02:03:15;;;;;;;;;;;;;;;23.33;23.19;100304.84;4970990;28;1974;-75
2022/02/01 02:05:41;;;;;;;;;;;;;;;24.23;22.10;100298.41;4969986;28;1324;-75
2022/02/01 02:08:09;;;;;;;;;;;;;;;23.76;22.70;100300.59;4970319;28;1006;-75
2022/02/01 02:10:45;;;;;;;;;;;;;;;24.19;22.30;100289.69;4970627;28;983;-81
2022/02/01 02:15:57;;;;;;;;;;;;;;;23.09;23.42;100304.50;4951820;28;1543;-79
2022/02/01 02:18:23;;;;;;;;;;;;;;;23.81;22.56;100298.03;4970317;28;1087;-77
2022/02/01 02:20:51;;;;;;;;;;;;;;;23.37;23.28;100306.13;4970078;28;693;-75
2022/02/01 02:23:17;;;;;;;;;;;;;;;22.87;23.94;100303.91;4970229;28;1918;-76
2022/02/01 02:25:43;;;;;;;;;;;;;;;23.29;23.39;100300.84;4970021;28;1330;-76
2022/02/01 02:28:14;;;;;;;;;;;;;;;22.57;23.96;100307.16;4952895;28;952;-76
2022/02/01 02:30:40;;;;;;;;;;;;;;;22.96;23.70;100308.16;4970060;28;1043;-75
2022/02/01 02:33:09;;;;;;;;;;;;;;;22.30;24.08;100307.16;4970047;28;963;-76
2022/02/01 02:35:41;;;;;;;;;;;;;;;22.53;24.16;100292.91;4953324;28;1595;-79
2022/02/01 02:38:13;;;;;;;;;;;;;;;22.49;23.89;100302.69;4952622;28;883;-75
2022/02/01 02:40:58;;;;;;;;;;;;;;;22.66;23.93;100303.13;4969688;28;952;-79
2022/02/01 02:46:08;;;;;;;;;;;;;;;22.37;24.15;100307.19;5051242;28;1125;-77
2022/02/01 02:48:34;;;;;;;;;;;;;;;23.67;23.20;100309.19;4991208;28;797;-78
2022/02/01 02:51:01;;;;;;;;;;;;;;;23.38;23.23;100300.38;4989493;28;1044;-79
2022/02/01 02:53:28;;;;;;;;;;;;;;;22.05;24.88;100291.16;4989248;28;971;-76
2022/02/01 02:55:54;;;;;;;;;;;;;;;22.63;24.77;100299.91;4988894;28;1418;-76
2022/02/01 02:58:21;;;;;;;;;;;;;;;22.52;24.83;100291.19;5055678;28;1325;-77
2022/02/01 03:00:47;;;;;;;;;;;;;;;23.37;23.38;100286.75;4988993;28;1049;-78
2022/02/01 03:03:13;;;;;;;;;;;;;;;23.79;23.01;100280.78;5055949;28;840;-74
2022/02/01 03:05:40;;;;;;;;;;;;;;;23.14;23.71;100274.25;4988449;28;1960;-78
2022/02/01 03:08:06;;;;;;;;;;;;;;;21.92;24.93;100276.50;4988727;28;1057;-78
2022/02/01 03:10:34;;;;;;;;;;;;;;;23.66;23.11;100273.38;5055982;28;1160;-76
2022/02/01 03:13:10;;;;;;;;;;;;;;;24.13;22.52;100262.00;4988871;28;975;-76
2022/02/01 03:15:44;;;;;;;;;;;;;;;23.53;23.33;100271.53;4988550;28;1439;-79
2022/02/01 03:20:55;;;;;;;;;;;;;;;23.40;23.30;100264.16;5055872;28;829;-79
2022/02/01 03:23:21;;;;;;;;;;;;;;;24.30;22.82;100271.47;5039356;28;1161;-77
2022/02/01 03:25:49;;;;;;;;;;;;;;;23.85;22.77;100258.56;4988160;28;1987;-78
2022/02/01 03:28:16;;;;;;;;;;;;;;;23.96;23.16;100258.94;4989510;28;851;-77
2022/02/01 03:30:42;;;;;;;;;;;;;;;24.27;22.59;100271.91;5056831;28;1014;-77
2022/02/01 03:33:08;;;;;;;;;;;;;;;23.42;23.36;100273.09;4989101;28;737;-76
2022/02/01 03:35:34;;;;;;;;;;;;;;;23.54;23.49;100265.81;5055250;28;1334;-78
2022/02/01 03:38:02;;;;;;;;;;;;;;;23.63;22.89;100271.06;4988451;28;1046;-75
2022/02/01 03:40:28;;;;;;;;;;;;;;;23.33;23.41;100269.75;4988698;28;1010;-76
2022/02/01 03:42:56;;;;;;;;;;;;;;;23.66;22.96;100276.16;4988583;28;904;-75
2022/02/01 03:45:22;;;;;;;;;;;;;;;23.28;23.72;100285.31;4975541;28;1932;-79
2022/02/01 03:47:49;;;;;;;;;;;;;;;23.37;23.16;100282.06;4969088;28;1031;-76
2022/02/01 03:50:15;;;;;;;;;;;;;;;24.12;22.79;100276.94;4969393;28;808;-74
2022/02/01 03:52:41;;;;;;;;;;;;;;;23.96;22.89;100279.19;4969444;28;1067;-75
2022/02/01 03:55:08;;;;;;;;;;;;;;;23.76;23.07;100281.22;4951420;28;1322;-75
2022/02/01 03:57:34;;;;;;;;;;;;;;;23.87;22.81;100270.25;4968983;28;967;-77
2022/02/01 04:00:04;;;;;;;;;;;;;;;24.04;22.70;100283.63;4952122;28;1586;-76
2022/02/01 04:02:38;;;;;;;;;;;;;;;23.52;23.19;100290.09;4969166;28;979;-76
2022/02/01 04:05:05;;;;;;;;;;;;;;;23.65;22.93;100302.16;4968730;28;1993;-76
2022/02/01 04:07:31;;;;;;;;;;;;;;;22.85;24.09;100282.00;4969131;28;706;-76
2022/02/01 04:09:57;;;;;;;;;;;;;;;23.55;23.22;100280.50;4936471;28;1222;-77
2022/02/01 04:12:24;;;;;;;;;;;;;;;23.28;23.49;100271.47;4972487;28;947;-76
2022/02/01 04:14:53;;;;;;;;;;;;;;;23.91;22.77;100259.63;4972155;28;1350;-77
2022/02/01 04:17:21;;;;;;;;;;;;;;;22.59;24.17;100258.00;4955055;28;1070;-77
2022/02/01 04:19:48;;;;;;;;;;;;;;;24.15;22.65;100255.16;4972081;28;975;-76
2022/02/01 04:22:15;;;;;;;;;;;;;;;22.67;24.30;100256.94;4955098;28;1609;-77
2022/02/01 04:24:42;;;;;;;;;;;;;;;22.43;24.55;100253.78;4954285;28;1932;-79
2022/02/01 04:27:12;;;;;;;;;;;;;;;21.49;25.55;100245.34;4971994;28;1257;-73
2022/02/01 04:29:42;;;;;;;;;;;;;;;22.55;24.37;100241.00;4954988;28;1070;-74
2022/02/01 04:32:09;;;;;;;;;;;;;;;22.23;24.67;100232.50;4954427;28;1220;-74
2022/02/01 04:34:36;;;;;;;;;;;;;;;21.49;25.54;100230.72;4972488;28;1486;-74
2022/02/01 04:37:03;;;;;;;;;;;;;;;21.39;25.92;100223.69;4971630;28;1547;-77
2022/02/01 04:39:29;;;;;;;;;;;;;;;21.95;25.23;100220.81;4955253;28;1214;-77
2022/02/01 04:41:55;;;;;;;;;;;;;;;22.15;24.80;100210.59;4954539;28;774;-76
2022/02/01 04:44:23;;;;;;;;;;;;;;;22.57;24.57;100207.59;4971453;28;1920;-76
2022/02/01 04:46:49;;;;;;;;;;;;;;;20.99;26.18;100207.00;4971699;28;796;-76
2022/02/01 04:49:16;;;;;;;;;;;;;;;22.85;23.79;100215.59;4954468;28;877;-77
2022/02/01 04:51:43;;;;;;;;;;;;;;;21.98;24.62;100209.31;4954313;28;1401;-75
2022/02/01 04:54:10;;;;;;;;;;;;;;;21.99;24.86;100208.28;4972275;28;1561;-77
2022/02/01 04:56:37;;;;;;;;;;;;;;;22.08;24.42;100193.19;4971457;28;1271;-74
2022/02/01 04:59:03;;;;;;;;;;;;;;;23.59;23.59;100195.03;4971577;28;1458;-78
2022/02/01 05:01:37;;;;;;;;;;;;;;;23.38;23.61;100199.84;4954387;28;1537;-76
2022/02/01 05:04:03;;;;;;;;;;;;;;;23.03;24.11;100205.75;4953858;28;1374;-79
2022/02/01 05:06:30;;;;;;;;;;;;;;;23.74;22.91;100201.09;4957923;28;1906;-74
2022/02/01 05:08:58;;;;;;;;;;;;;;;23.52;23.37;100197.84;4981290;28;1593;-76
2022/02/01 05:11:24;;;;;;;;;;;;;;;23.01;24.11;100199.56;4961190;28;1577;-74
2022/02/01 05:14:08;;;;;;;;;;;;;;;22.80;24.42;100212.63;4990464;28;1393;-74
2022/02/01 05:16:45;;;;;;;;;;;;;;;23.50;23.83;100211.91;4991944;28;1525;-74
2022/02/01 05:19:17;;;;;;;;;;;;;;;23.03;24.13;100211.28;4969626;28;2083;-74
2022/02/01 05:21:44;;;;;;;;;;;;;;;23.12;23.94;100214.66;4973818;28;1138;-76
2022/02/01 05:24:13;;;;;;;;;;;;;;;22.61;24.90;100208.00;4970733;28;1479;-73
2022/02/01 05:26:39;;;;;;;;;;;;;;;22.64;25.05;100207.59;4954753;28;1526;-73
2022/02/01 05:29:06;;;;;;;;;;;;;;;23.13;24.49;100208.03;4970910;28;967;-75
2022/02/01 05:31:32;;;;;;;;;;;;;;;24.01;23.39;100200.91;4971727;28;1581;-78
2022/02/01 05:33:58;;;;;;;;;;;;;;;23.38;23.97;100211.78;4988498;28;1446;-79
2022/02/01 05:36:24;;;;;;;;;;;;;;;22.49;24.59;100210.56;4977835;28;1548;-76
2022/02/01 05:38:53;;;;;;;;;;;;;;;21.84;25.49;100208.47;4953177;28;995;-75
2022/02/01 05:41:22;;;;;;;;;;;;;;;22.92;24.64;100206.44;4953505;28;1093;-76
2022/02/01 05:43:48;;;;;;;;;;;;;;;22.19;25.15;100216.56;4953029;28;1406;-74
2022/02/01 05:46:16;;;;;;;;;;;;;;;22.70;24.55;100224.16;4954060;28;1939;-73
2022/02/01 05:48:43;;;;;;;;;;;;;;;23.34;23.81;100220.72;4953403;28;1050;-76
2022/02/01 05:51:09;;;;;;;;;;;;;;;22.43;24.97;100223.34;4970746;28;1061;-76
2022/02/01 05:53:35;;;;;;;;;;;;;;;23.44;24.15;100218.34;4970737;28;927;-74
2022/02/01 05:56:01;;;;;;;;;;;;;;;22.46;25.22;100228.47;4952708;28;1283;-74
2022/02/01 05:58:29;;;;;;;;;;;;;;;23.13;24.44;100222.75;5012710;28;2068;-73
2022/02/01 06:00:55;;;;;;;;;;;;;;;22.14;25.04;100214.44;5063517;28;1147;-75
2022/02/01 06:03:22;;;;;;;;;;;;;;;21.71;26.43;100218.47;5072022;28;1041;-76
2022/02/01 06:05:48;;;;;;;;;;;;;;;22.27;25.41;100223.78;5071594;28;1975;-74
2022/02/01 06:08:14;;;;;;;;;;;;;;;22.14;25.28;100219.97;5071798;28;954;-74
2022/02/01 06:10:40;;;;;;;;;;;;;;;22.38;25.36;100231.44;5053931;28;974;-74
2022/02/01 06:13:07;;;;;;;;;;;;;;;22.33;25.82;100243.13;5053728;28;1190;-74
2022/02/01 06:15:37;;;;;;;;;;;;;;;22.09;25.70;100239.09;5053397;28;1412;-73
2022/02/01 06:18:04;;;;;;;;;;;;;;;21.88;26.15;100240.97;5053694;28;931;-76
2022/02/01 06:20:30;;;;;;;;;;;;;;;21.95;26.16;100241.00;5071853;28;907;-75
2022/02/01 06:22:56;;;;;;;;;;;;;;;20.62;27.17;100244.94;5071478;28;986;-76
2022/02/01 06:25:44;;;;;;;;;;;;;;;22.69;25.10;100240.97;5053119;28;1991;-76
2022/02/01 06:28:10;;;;;;;;;;;;;;;22.23;25.65;100237.16;5071395;28;895;-76
2022/02/01 06:30:38;;;;;;;;;;;;;;;23.11;24.49;100241.47;5069606;28;1598;-76
2022/02/01 06:33:04;;;;;;;;;;;;;;;22.01;25.95;100240.16;4968964;28;1601;-73
2022/02/01 06:35:31;;;;;;;;;;;;;;;22.29;25.74;100258.44;4952191;28;1390;-80
2022/02/01 06:37:57;;;;;;;;;;;;;;;22.04;25.72;100247.16;4969790;28;1023;-75
2022/02/01 06:40:24;;;;;;;;;;;;;;;23.24;24.42;100248.91;4989180;28;1233;-76
2022/02/01 06:42:50;;;;;;;;;;;;;;;22.45;25.06;100243.34;4967978;28;1275;-76
2022/02/01 06:45:16;;;;;;;;;;;;;;;23.12;24.01;100248.72;4981121;28;1910;-76
2022/02/01 06:47:44;;;;;;;;;;;;;;;23.85;23.62;100244.72;5056145;28;926;-76
2022/02/01 06:50:12;;;;;;;;;;;;;;;21.89;25.56;100248.22;5055713;28;1048;-74
2022/02/01 06:52:38;;;;;;;;;;;;;;;23.95;23.78;100247.00;5056105;28;986;-75
2022/02/01 06:55:05;;;;;;;;;;;;;;;22.83;24.66;100237.09;5039100;28;1425;-75
2022/02/01 06:57:36;;;;;;;;;;;;;;;23.43;23.84;100229.66;4989120;28;801;-75
2022/02/01 07:00:03;;;;;;;;;;;;;;;23.05;24.57;100223.00;4988692;28;800;-76
2022/02/01 07:02:29;;;;;;;;;;;;;;;21.82;25.59;100219.75;5056127;28;1034;-73
2022/02/01 07:04:57;;;;;;;;;;;;;;;22.51;24.86;100223.13;5055530;28;1974;-75
2022/02/01 07:07:23;;;;;;;;;;;;;;;23.35;24.15;100222.44;4989116;28;935;-75
2022/02/01 07:09:50;;;;;;;;;;;;;;;21.70;25.75;100219.50;4988853;28;859;-76
2022/02/01 07:12:16;;;;;;;;;;;;;;;20.70;26.86;100220.00;5055932;28;1548;-76
2022/02/01 07:14:42;;;;;;;;;;;;;;;21.49;26.49;100217.75;4988479;28;1293;-77
2022/02/01 07:17:08;;;;;;;;;;;;;;;23.35;23.97;100226.03;4988867;28;1022;-75
2022/02/01 07:19:35;;;;;;;;;;;;;;;22.96;24.41;100229.84;4988830;28;789;-76
2022/02/01 07:22:03;;;;;;;;;;;;;;;22.40;24.87;100229.31;5055926;28;860;-74
2022/02/01 07:24:36;;;;;;;;;;;;;;;22.01;25.51;100226.34;5054841;28;1476;-76
2022/02/01 07:27:10;;;;;;;;;;;;;;;22.06;25.48;100215.50;4987840;28;1911;-77
2022/02/01 07:29:37;;;;;;;;;;;;;;;22.73;24.79;100228.41;4986978;28;1260;-76
2022/02/01 07:32:03;;;;;;;;;;;;;;;22.36;25.46;100228.91;4989400;28;1027;-77
2022/02/01 07:34:30;;;;;;;;;;;;;;;23.34;24.00;100223.50;5052584;28;1369;-79
2022/02/01 07:36:56;;;;;;;;;;;;;;;22.01;25.67;100218.06;4989546;28;1187;-76
2022/02/01 07:39:24;;;;;;;;;;;;;;;23.18;24.56;100225.72;4988605;28;993;-73
2022/02/01 07:41:50;;;;;;;;;;;;;;;23.42;24.11;100227.94;4988213;28;785;-74
2022/02/01 07:44:16;;;;;;;;;;;;;;;22.67;24.63;100213.50;4987832;28;1371;-76
2022/02/01 07:46:43;;;;;;;;;;;;;;;22.70;25.07;100228.84;5059174;28;1982;-73
2022/02/01 07:49:15;;;;;;;;;;;;;;;21.92;25.02;100221.25;4991759;28;1065;-74
2022/02/01 07:51:42;;;;;;;;;;;;;;;22.68;24.98;100230.97;5058918;28;1280;-73
2022/02/01 07:54:08;;;;;;;;;;;;;;;22.97;24.93;100223.22;5059159;28;1359;-78
2022/02/01 07:56:36;;;;;;;;;;;;;;;21.89;25.68;100223.34;4990757;28;1117;-77
2022/02/01 07:59:02;;;;;;;;;;;;;;;23.75;23.48;100219.41;4991586;28;929;-73
2022/02/01 08:01:28;;;;;;;;;;;;;;;23.23;24.39;100219.50;4991606;28;967;-75
2022/02/01 08:03:54;;;;;;;;;;;;;;;21.93;25.92;100206.34;5058736;28;1356;-74
2022/02/01 08:06:21;;;;;;;;;;;;;;;21.63;25.75;100206.75;4991159;28;1919;-75
2022/02/01 08:08:47;;;;;;;;;;;;;;;23.20;24.24;100206.97;4991415;28;1247;-75
2022/02/01 08:11:16;;;;;;;;;;;;;;;23.96;23.70;100209.03;4991777;28;828;-77
2022/02/01 08:16:43;;;;;;;;;;;;;;;24.11;23.63;100217.06;4991238;28;1054;-72
2022/02/01 08:19:23;;;;;;;;;;;;;;;23.03;24.54;100205.75;4991318;28;1061;-74
2022/02/01 08:21:51;;;;;;;;;;;;;;;23.04;24.39;100213.81;4991190;28;923;-75
2022/02/01 08:24:18;;;;;;;;;;;;;;;23.38;24.11;100213.69;4991110;28;1426;-75
2022/02/01 08:26:44;;;;;;;;;;;;;;;22.64;24.67;100213.97;5058384;28;1975;-74
2022/02/01 08:29:13;;;;;;;;;;;;;;;23.28;24.24;100214.16;5058624;28;836;-78
2022/02/01 08:31:40;;;;;;;;;;;;;;;23.06;24.58;100208.94;4991042;28;881;-71
2022/02/01 08:34:07;;;;;;;;;;;;;;;22.30;25.24;100210.38;5058109;28;1393;-72
2022/02/01 08:36:33;;;;;;;;;;;;;;;23.23;24.63;100212.03;4991021;28;1060;-75
2022/02/01 08:38:59;;;;;;;;;;;;;;;23.24;24.07;100213.75;4990624;28;1479;-75
2022/02/01 08:41:26;;;;;;;;;;;;;;;23.32;24.42;100215.44;5058178;28;912;-75
2022/02/01 08:43:54;;;;;;;;;;;;;;;24.33;23.11;100214.69;4990013;28;1411;-75
2022/02/01 08:46:22;;;;;;;;;;;;;;;24.46;23.11;100202.63;4953898;28;1918;-75
2022/02/01 08:48:49;;;;;;;;;;;;;;;23.52;23.45;100214.47;4971257;28;974;-72
2022/02/01 08:51:17;;;;;;;;;;;;;;;24.05;23.41;100202.16;4971333;28;1014;-73
2022/02/01 08:53:47;;;;;;;;;;;;;;;24.17;23.37;100199.50;4971402;28;1334;-76
2022/02/01 08:58:54;;;;;;;;;;;;;;;23.46;23.97;100171.03;4952890;28;1288;-75
2022/02/01 09:01:22;;;;;;;;;;;;;;;22.29;25.01;100180.16;4971198;28;804;-74
2022/02/01 09:03:48;;;;;;;;;;;;;;;24.79;22.67;100166.22;4970966;28;1346;-72
2022/02/01 09:06:15;;;;;;;;;;;;;;;25.01;22.32;100172.16;4970750;28;1910;-77
2022/02/01 09:08:41;;;;;;;;;;;;;;;25.49;21.72;100161.25;4953639;28;1292;-77
2022/02/01 09:11:08;;;;;;;;;;;;;;;22.82;25.12;100163.47;4970970;28;804;-76
2022/02/01 09:13:34;;;;;;;;;;;;;;;22.70;25.13;100157.78;4971030;28;970;-75
2022/02/01 09:16:01;;;;;;;;;;;;;;;23.82;23.92;100145.38;4970597;28;1333;-74
2022/02/01 09:18:29;;;;;;;;;;;;;;;22.18;26.04;100159.56;4970914;28;1090;-74
2022/02/01 09:20:55;;;;;;;;;;;;;;;23.17;24.15;100151.19;4970637;28;900;-73
2022/02/01 09:23:22;;;;;;;;;;;;;;;23.33;24.46;100133.19;4937685;28;1007;-73
2022/02/01 09:25:48;;;;;;;;;;;;;;;23.68;24.26;100135.53;4970424;28;1957;-72
2022/02/01 09:28:14;;;;;;;;;;;;;;;24.46;23.38;100131.34;4953496;28;1421;-72
2022/02/01 09:30:40;;;;;;;;;;;;;;;25.25;21.98;100119.47;4937424;28;1600;-74
2022/02/01 09:33:07;;;;;;;;;;;;;;;23.98;23.08;100115.44;4970515;28;998;-72
2022/02/01 09:35:34;;;;;;;;;;;;;;;25.84;21.83;100118.75;4970196;28;1357;-73
2022/02/01 09:38:01;;;;;;;;;;;;;;;25.14;22.29;100115.56;4970486;28;899;-72
2022/02/01 09:40:27;;;;;;;;;;;;;;;24.90;22.68;100098.81;4970430;28;1043;-75
2022/02/01 09:42:53;;;;;;;;;;;;;;;24.74;22.84;100099.47;4970257;28;820;-73
2022/02/01 09:45:19;;;;;;;;;;;;;;;22.93;24.40;100095.53;5024500;28;1338;-74
2022/02/01 09:47:46;;;;;;;;;;;;;;;23.59;23.54;100085.09;5071936;28;1983;-72
2022/02/01 09:50:14;;;;;;;;;;;;;;;22.71;24.73;100081.16;5072302;28;1033;-75
2022/02/01 09:52:42;;;;;;;;;;;;;;;23.73;23.87;100086.66;5072211;28;773;-76
2022/02/01 09:55:09;;;;;;;;;;;;;;;25.20;22.30;100074.91;5071482;28;1309;-72
2022/02/01 09:57:36;;;;;;;;;;;;;;;23.50;23.87;100065.13;5071718;28;907;-76
2022/02/01 10:00:10;;;;;;;;;;;;;;;24.52;23.30;100069.41;5070644;28;1074;-72
2022/02/01 10:02:38;;;;;;;;;;;;;;;23.48;23.81;100055.38;5071938;28;930;-74
2022/02/01 10:05:05;;;;;;;;;;;;;;;23.64;24.17;100054.78;5071250;28;1301;-72
2022/02/01 10:07:31;;;;;;;;;;;;;;;22.47;25.02;100033.84;5070838;28;1993;-73
2022/02/01 10:10:00;;;;;;;;;;;;;;;23.82;24.38;100058.66;5071387;28;1002;-72
2022/02/01 10:12:28;;;;;;;;;;;;;;;22.38;25.06;100033.25;5071493;28;1037;-73
2022/02/01 10:14:59;;;;;;;;;;;;;;;24.18;23.77;100041.22;5070933;28;1308;-75
2022/02/01 10:17:26;;;;;;;;;;;;;;;24.16;23.44;100037.00;5070339;28;880;-74
2022/02/01 10:19:53;;;;;;;;;;;;;;;24.20;23.35;100039.09;5069922;28;1246;-72
2022/02/01 10:22:28;;;;;;;;;;;;;;;23.21;24.96;100050.88;5071342;28;994;-72
2022/02/01 10:24:55;;;;;;;;;;;;;;;22.40;25.62;100047.69;5070889;28;1343;-74
2022/02/01 10:27:24;;;;;;;;;;;;;;;24.27;24.00;100039.00;5071318;28;1924;-72
2022/02/01 10:29:58;;;;;;;;;;;;;;;23.49;24.25;100035.75;5071336;28;868;-73
2022/02/01 10:32:34;;;;;;;;;;;;;;;24.10;23.69;100016.59;5069875;28;1546;-75
2022/02/01 10:35:09;;;;;;;;;;;;;;;23.63;24.01;100010.69;5052620;28;1288;-77
2022/02/01 10:37:36;;;;;;;;;;;;;;;22.45;26.10;100000.03;5071075;28;895;-73
2022/02/01 10:40:05;;;;;;;;;;;;;;;24.23;23.61;99999.81;5069745;28;1370;-72
2022/02/01 10:42:33;;;;;;;;;;;;;;;22.29;26.08;100006.03;5069831;28;788;-75
2022/02/01 10:45:00;;;;;;;;;;;;;;;23.36;24.97;100008.19;5021413;28;1300;-72
2022/02/01 10:47:34;;;;;;;;;;;;;;;24.10;23.53;99994.41;4969344;28;1910;-75
2022/02/01 10:50:06;;;;;;;;;;;;;;;24.87;23.28;99996.59;4936019;28;1361;-74
2022/02/01 10:52:36;;;;;;;;;;;;;;;23.30;24.50;99996.06;4952348;28;789;-74
2022/02/01 10:55:03;;;;;;;;;;;;;;;24.35;23.18;99977.69;4951496;28;1456;-73
2022/02/01 10:57:29;;;;;;;;;;;;;;;23.85;23.99;99988.94;4969480;28;990;-73
2022/02/01 10:59:57;;;;;;;;;;;;;;;22.96;25.12;99986.34;4952035;28;1223;-73
2022/02/01 11:02:24;;;;;;;;;;;;;;;23.05;24.38;99973.91;4969536;28;813;-75
2022/02/01 11:04:52;;;;;;;;;;;;;;;23.97;23.15;99970.50;4968798;28;1370;-74
2022/02/01 11:07:19;;;;;;;;;;;;;;;24.73;23.18;99962.69;4955965;28;1914;-74
2022/02/01 11:09:45;;;;;;;;;;;;;;;23.73;23.71;99956.47;4974054;28;782;-77
2022/02/01 11:12:12;;;;;;;;;;;;;;;23.65;24.24;99942.91;4951957;28;924;-76
2022/02/01 11:14:40;;;;;;;;;;;;;;;23.97;23.64;99928.94;4968947;28;1448;-76
2022/02/01 11:17:09;;;;;;;;;;;;;;;23.11;24.66;99933.41;4969172;28;920;-76
2022/02/01 11:19:44;;;;;;;;;;;;;;;23.06;24.26;99903.63;4964796;28;2173;-75
2022/02/01 11:22:18;;;;;;;;;;;;;;;25.06;22.49;99902.97;4961575;28;1140;-76
2022/02/01 11:24:50;;;;;;;;;;;;;;;23.75;24.06;99900.81;4973128;28;1407;-76
2022/02/01 11:27:19;;;;;;;;;;;;;;;24.27;23.48;99883.75;4954639;28;1911;-73
2022/02/01 11:30:11;;;;;;;;;;;;;;;23.45;24.12;99876.66;4958619;28;939;-76
2022/02/01 11:32:40;;;;;;;;;;;;;;;26.42;21.62;99863.06;4951349;28;1190;-76
2022/02/01 11:35:07;;;;;;;;;;;;;;;26.32;21.79;99858.16;4951362;28;1305;-75
2022/02/01 11:37:34;;;;;;;;;;;;;;;25.06;22.72;99846.63;4969199;28;820;-75
2022/02/01 11:40:00;;;;;;;;;;;;;;;24.85;22.40;99843.38;4951803;28;912;-77
2022/02/01 11:42:31;;;;;;;;;;;;;;;25.33;22.43;99832.22;4951883;28;1182;-74
2022/02/01 11:44:59;;;;;;;;;;;;;;;25.41;22.63;99826.31;4968436;28;1365;-77
2022/02/01 11:47:32;;;;;;;;;;;;;;;25.31;22.12;99826.06;5085761;22;3811;-75
2022/02/01 11:50:01;;;;;;;;;;;;;;;25.15;22.58;99811.84;5127649;28;946;-77
2022/02/01 11:52:28;;;;;;;;;;;;;;;25.67;21.69;99807.41;5114694;28;1101;-75
2022/02/01 11:55:00;;;;;;;;;;;;;;;24.72;23.12;99807.53;5110578;28;917;-75
2022/02/01 11:57:27;;;;;;;;;;;;;;;25.39;22.65;99786.88;5111031;28;1298;-74
2022/02/01 11:59:58;;;;;;;;;;;;;;;26.48;21.50;99779.44;5111266;28;923;-76
2022/02/01 12:02:29;;;;;;;;;;;;;;;24.33;23.43;99783.00;5111002;28;859;-76
2022/02/01 12:05:06;;;;;;;;;;;;;;;23.82;24.25;99770.50;5110580;28;970;-76
2022/02/01 12:07:41;;;;;;;;;;;;;;;24.13;23.79;99751.94;5092773;28;1917;-76
2022/02/01 12:10:11;;;;;;;;;;;;;;;24.85;23.53;99757.34;5110998;28;997;-75
2022/02/01 12:12:37;;;;;;;;;;;;;;;25.27;22.96;99745.19;5111435;28;772;-76
2022/02/01 12:15:04;;;;;;;;;;;;;;;26.11;22.22;99729.03;5110534;28;880;-76
2022/02/01 12:17:31;;;;;;;;;;;;;;;24.10;24.23;99731.09;5111042;28;1383;-76
2022/02/01 12:20:00;;;;;;;;;;;;;;;24.60;23.60;99720.66;5110893;28;989;-75
2022/02/01 12:22:31;;;;;;;;;;;;;;;24.15;23.97;99708.22;5093320;28;1164;-77
2022/02/01 12:25:01;;;;;;;;;;;;;;;23.82;24.00;99702.09;5093665;28;1179;-76
2022/02/01 12:27:32;;;;;;;;;;;;;;;22.36;25.86;99694.53;5111132;28;1913;-74
2022/02/01 12:29:59;;;;;;;;;;;;;;;24.48;23.74;99691.00;5110812;28;973;-76
2022/02/01 12:32:25;;;;;;;;;;;;;;;23.56;24.23;99675.66;5113664;28;875;-75
2022/02/01 12:34:52;;;;;;;;;;;;;;;24.58;23.15;99659.88;5113801;28;1491;-75
2022/02/01 12:37:21;;;;;;;;;;;;;;;24.25;24.05;99658.56;5114550;28;1317;-75
2022/02/01 12:39:57;;;;;;;;;;;;;;;22.98;25.19;99639.16;5114467;28;861;-77
2022/02/01 12:42:31;;;;;;;;;;;;;;;23.55;24.78;99644.31;5114792;28;903;-77
2022/02/01 12:47:41;;;;;;;;;;;;;;;24.21;23.71;99608.31;5050539;28;1918;-77
2022/02/01 12:50:12;;;;;;;;;;;;;;;23.86;24.15;99606.31;5040371;28;764;-76
2022/02/01 12:52:38;;;;;;;;;;;;;;;23.03;25.42;99591.41;5031811;28;970;-76
2022/02/01 12:55:07;;;;;;;;;;;;;;;23.32;24.88;99583.38;5029317;28;1056;-77
2022/02/01 12:57:34;;;;;;;;;;;;;;;24.11;23.66;99565.66;5029281;28;1403;-77
2022/02/01 13:00:02;;;;;;;;;;;;;;;23.41;24.55;99548.72;5028572;28;1235;-76
2022/02/01 13:02:30;;;;;;;;;;;;;;;23.50;23.97;99519.56;5030200;28;1274;-76
2022/02/01 13:04:57;;;;;;;;;;;;;;;24.51;23.52;99518.56;5030028;28;864;-76
2022/02/01 13:07:30;;;;;;;;;;;;;;;23.07;24.69;99509.63;5029654;28;1993;-76
2022/02/01 13:13:09;;;;;;;;;;;;;;;23.79;24.46;99478.16;5030262;28;990;-75
2022/02/01 13:15:40;;;;;;;;;;;;;;;22.80;25.04;99459.38;5030097;28;839;-75
2022/02/01 13:18:22;;;;;;;;;;;;;;;23.36;24.76;99446.16;5030614;28;982;-75
2022/02/01 13:20:58;;;;;;;;;;;;;;;22.80;25.47;99438.09;5029858;28;1057;-76
2022/02/01 13:23:34;;;;;;;;;;;;;;;23.54;24.56;99420.25;5030074;28;846;-77
2022/02/01 13:26:01;;;;;;;;;;;;;;;24.06;24.06;99411.16;5028724;28;1343;-77
2022/02/01 13:28:28;;;;;;;;;;;;;;;24.67;23.22;99394.91;5030236;28;1910;-77
2022/02/01 13:31:05;;;;;;;;;;;;;;;23.79;24.26;99394.22;5030315;28;907;-74
2022/02/01 13:33:31;;;;;;;;;;;;;;;22.90;25.59;99399.63;5031566;28;1061;-76
2022/02/01 13:35:58;;;;;;;;;;;;;;;21.65;26.28;99384.56;5028697;28;1557;-76
2022/02/01 13:38:25;;;;;;;;;;;;;;;22.71;26.07;99373.97;5037584;28;971;-75
2022/02/01 13:40:53;;;;;;;;;;;;;;;22.85;26.11;99382.91;5036247;28;1092;-75
2022/02/01 13:43:20;;;;;;;;;;;;;;;22.88;26.69;99370.53;5030081;28;1067;-76
2022/02/01 13:45:49;;;;;;;;;;;;;;;22.87;26.21;99355.84;5046282;28;1404;-76
2022/02/01 13:48:19;;;;;;;;;;;;;;;22.63;26.74;99349.44;5132538;27;1969;-76
2022/02/01 13:50:47;;;;;;;;;;;;;;;23.80;25.46;99341.34;5133586;27;1065;-75
2022/02/01 13:53:14;;;;;;;;;;;;;;;22.89;25.72;99339.03;5133665;27;942;-74
2022/02/01 13:55:41;;;;;;;;;;;;;;;23.65;25.62;99327.16;5134413;27;911;-75
2022/02/01 13:58:09;;;;;;;;;;;;;;;22.24;26.84;99322.13;5120580;27;1990;-75
2022/02/01 14:00:37;;;;;;;;;;;;;;;23.49;25.80;99313.00;5113532;28;1057;-75
2022/02/01 14:03:09;;;;;;;;;;;;;;;22.87;26.29;99297.75;5113099;28;954;-76
2022/02/01 14:05:38;;;;;;;;;;;;;;;20.87;28.81;99296.63;5113966;28;1073;-75